Time;durP1;ratioP1;P1;durP2;ratioP2;P2;SDS_P1;SDS_P2;PMS_P1;PMS_P2;Temp;Humidity;BMP_temperature;BMP_pressure;BME280_temperature;BME280_humidity;BME280_pressure;Samples;Min_cycle;Max_cycle;Signal;HPM_P1;HPM_P2
2021/12/22 00:00:15;;;;;;;28.87;15.60;;;1.20;99.90;;;2.06;100.00;-19796.91;5077578;28;20207;-62
2021/12/22 00:02:46;;;;;;;27.67;15.37;;;1.20;99.90;;;2.04;100.00;-19796.25;5079181;28;20192;-61
2021/12/22 00:05:22;;;;;;;30.57;16.13;;;1.30;99.90;;;2.03;100.00;-19795.91;5063829;28;20681;-62
2021/12/22 00:07:52;;;;;;;26.33;15.13;;;1.20;99.90;;;2.00;100.00;-19794.88;5076140;28;20310;-62
2021/12/22 00:10:23;;;;;;;29.13;16.13;;;1.30;99.90;;;1.90;100.00;-19791.63;5073165;28;20211;-61
2021/12/22 00:12:52;;;;;;;23.90;14.97;;;1.20;99.90;;;1.81;100.00;-19788.53;5077406;28;20247;-62
2021/12/22 00:15:20;;;;;;;27.13;15.20;;;1.20;99.90;;;1.73;100.00;-19785.81;5071069;28;20200;-63
2021/12/22 00:17:48;;;;;;;25.70;16.00;;;1.20;99.90;;;1.76;100.00;-19786.66;5073465;28;20299;-62
2021/12/22 00:20:16;;;;;;;25.67;15.47;;;1.20;99.90;;;1.73;100.00;-19785.81;5075993;28;20200;-63
2021/12/22 00:22:44;;;;;;;25.90;15.70;;;1.10;99.90;;;1.81;100.00;-19788.53;5075703;28;20204;-62
2021/12/22 00:25:15;;;;;;;26.93;15.77;;;1.10;99.90;;;1.86;100.00;-19790.09;5070738;28;20246;-62
2021/12/22 00:27:43;;;;;;;24.67;15.57;;;1.20;99.90;;;1.87;100.00;-19790.59;5072786;28;20250;-62
2021/12/22 00:30:11;;;;;;;25.73;14.67;;;1.20;99.90;;;2.05;100.00;-19796.56;5072127;28;20201;-61
2021/12/22 00:32:40;;;;;;;26.50;15.17;;;1.20;99.90;;;1.87;100.00;-19790.44;5075874;28;20859;-63
2021/12/22 00:35:09;;;;;;;26.23;14.90;;;1.20;99.90;;;1.99;100.00;-19794.53;5070457;28;20212;-61
2021/12/22 00:37:37;;;;;;;30.10;16.27;;;1.10;99.90;;;1.88;100.00;-19790.94;5074152;28;20248;-61
2021/12/22 00:40:08;;;;;;;24.47;14.90;;;1.10;99.90;;;1.67;100.00;-19783.59;5073601;28;20211;-62
2021/12/22 00:42:37;;;;;;;28.90;15.27;;;1.00;99.90;;;1.62;100.00;-19781.88;5072500;28;20196;-63
2021/12/22 00:45:07;;;;;;;24.97;14.53;;;1.00;99.90;;;1.49;100.00;-19777.59;5068523;28;20238;-62
2021/12/22 00:47:36;;;;;;;23.77;14.40;;;1.00;99.90;;;1.64;100.00;-19782.72;5073161;28;20240;-62
2021/12/22 00:50:06;;;;;;;27.57;15.10;;;1.00;99.90;;;1.59;100.00;-19781.03;5070105;28;20204;-63
2021/12/22 00:52:34;;;;;;;25.07;14.37;;;0.90;99.90;;;1.49;100.00;-19777.44;5072806;28;20347;-63
2021/12/22 00:55:02;;;;;;;25.57;14.57;;;0.90;99.90;;;1.51;100.00;-19778.28;5056030;28;20205;-62
2021/12/22 00:57:31;;;;;;;24.10;15.63;;;0.90;99.90;;;1.65;100.00;-19782.91;5072401;28;20205;-63
2021/12/22 01:00:01;;;;;;;26.13;15.23;;;0.90;99.90;;;1.72;100.00;-19785.47;5072089;28;20232;-63
2021/12/22 01:02:29;;;;;;;27.57;15.37;;;1.00;99.90;;;1.71;100.00;-19785.13;5072157;28;20235;-62
2021/12/22 01:04:58;;;;;;;26.17;15.57;;;1.00;99.90;;;1.75;100.00;-19786.50;5070676;28;20227;-62
2021/12/22 01:07:26;;;;;;;27.73;16.00;;;1.00;99.90;;;1.76;100.00;-19786.84;5071982;28;20235;-62
2021/12/22 01:10:15;;;;;;;28.27;16.37;;;1.00;99.90;;;1.92;100.00;-19792.31;5063104;28;20655;-62
2021/12/22 01:12:44;;;;;;;28.53;16.43;;;0.90;99.90;;;1.75;100.00;-19786.31;5072806;28;20227;-62
2021/12/22 01:15:14;;;;;;;28.13;16.20;;;1.00;99.90;;;1.59;100.00;-19781.03;5069569;28;20304;-62
2021/12/22 01:17:46;;;;;;;28.47;16.90;;;0.90;99.90;;;1.57;100.00;-19780.16;5071131;28;20306;-62
2021/12/22 01:20:23;;;;;;;30.10;16.73;;;1.00;99.90;;;1.51;100.00;-19778.13;5070552;28;20208;-62
2021/12/22 01:22:52;;;;;;;26.97;15.27;;;0.90;99.90;;;1.64;100.00;-19782.72;5071119;28;20288;-62
2021/12/22 01:25:22;;;;;;;30.50;17.23;;;0.90;99.90;;;1.61;100.00;-19781.53;5069856;28;20204;-62
2021/12/22 01:27:51;;;;;;;28.03;17.20;;;0.90;99.90;;;1.84;100.00;-19789.41;5070110;28;20204;-64
2021/12/22 01:30:26;;;;;;;33.27;18.70;;;1.00;99.90;;;1.74;100.00;-19786.16;5069890;28;20220;-63
2021/12/22 01:32:58;;;;;;;30.63;18.13;;;1.00;99.90;;;1.85;100.00;-19789.75;5069441;28;20221;-63
2021/12/22 01:35:31;;;;;;;30.57;18.50;;;1.00;99.90;;;1.73;100.00;-19785.63;5069470;28;20231;-61
2021/12/22 01:37:59;;;;;;;34.03;19.20;;;1.00;99.90;;;1.73;100.00;-19785.81;5081076;28;20299;-62
2021/12/22 01:40:29;;;;;;;29.67;17.63;;;1.00;99.90;;;1.91;100.00;-19791.78;5082764;28;20311;-62
2021/12/22 01:42:58;;;;;;;29.80;17.47;;;1.10;99.90;;;1.99;100.00;-19794.53;5087920;28;20207;-62
2021/12/22 01:45:54;;;;;;;32.80;17.30;;;1.10;99.90;;;1.93;100.00;-19792.66;5082694;28;20200;-63
2021/12/22 01:51:36;;;;;;;34.00;17.80;;;1.20;99.90;;;2.19;100.00;-19801.53;5069685;28;20988;-62
2021/12/22 01:54:08;;;;;;;30.40;16.90;;;1.30;99.90;;;2.18;100.00;-19801.03;5070630;28;20292;-61
2021/12/22 01:56:37;;;;;;;31.93;17.27;;;1.30;99.90;;;2.04;100.00;-19796.41;5065987;28;20201;-62
2021/12/22 01:59:09;;;;;;;28.80;17.17;;;1.20;99.90;;;1.83;100.00;-19789.06;5086824;28;20325;-62
2021/12/22 02:01:40;;;;;;;31.97;18.03;;;1.20;99.90;;;1.90;100.00;-19791.63;5080430;28;20318;-63
2021/12/22 02:04:13;;;;;;;30.33;18.27;;;1.20;99.90;;;1.71;100.00;-19785.13;5087611;28;20243;-63
2021/12/22 02:06:44;;;;;;;30.73;18.00;;;1.10;99.90;;;1.72;100.00;-19785.47;5071872;28;20227;-64
2021/12/22 02:09:36;;;;;;;31.37;17.30;;;1.10;99.90;;;1.92;100.00;-19792.31;5054681;28;20192;-63
2021/12/22 02:12:06;;;;;;;31.47;17.63;;;1.10;99.90;;;1.78;100.00;-19787.53;5078979;28;20219;-63
2021/12/22 02:14:34;;;;;;;30.83;18.13;;;1.10;99.90;;;1.90;100.00;-19791.63;5086165;28;20287;-62
2021/12/22 02:17:07;;;;;;;30.30;18.73;;;1.10;99.90;;;1.83;100.00;-19789.22;5067757;28;20207;-62
2021/12/22 02:19:38;;;;;;;30.60;18.47;;;1.10;99.90;;;1.85;100.00;-19789.91;5086680;28;20242;-63
2021/12/22 02:22:10;;;;;;;28.50;18.47;;;1.10;99.90;;;1.78;100.00;-19787.53;5080353;28;20687;-63
2021/12/22 02:24:40;;;;;;;28.93;18.00;;;1.10;99.90;;;1.69;100.00;-19784.28;5086214;28;20319;-63
2021/12/22 02:27:14;;;;;;;32.10;19.43;;;1.00;99.90;;;1.70;100.00;-19784.78;5069905;28;20197;-61
2021/12/22 02:29:46;;;;;;;26.60;16.90;;;1.00;99.90;;;1.70;100.00;-19784.78;5086353;28;20310;-62
2021/12/22 02:32:30;;;;;;;29.00;17.77;;;0.90;99.90;;;1.93;100.00;-19792.66;5079985;28;20303;-61
2021/12/22 02:35:02;;;;;;;30.87;17.57;;;0.90;99.90;;;1.83;100.00;-19789.06;5082446;28;20205;-62
2021/12/22 02:37:41;;;;;;;32.43;17.73;;;0.90;99.90;;;1.77;100.00;-19787.19;5060325;28;20314;-62
2021/12/22 02:40:14;;;;;;;29.10;16.90;;;1.00;99.90;;;1.69;100.00;-19784.28;5084311;28;20226;-62
2021/12/22 02:42:45;;;;;;;27.53;16.83;;;0.90;99.90;;;1.75;100.00;-19786.50;5081581;28;20238;-63
2021/12/22 02:45:17;;;;;;;26.40;16.07;;;0.90;99.90;;;1.70;100.00;-19784.78;5080774;28;20610;-61
2021/12/22 02:47:46;;;;;;;28.73;18.23;;;0.90;99.90;;;1.60;100.00;-19781.38;5074064;28;20232;-61
2021/12/22 02:50:17;;;;;;;30.70;17.93;;;0.90;99.90;;;1.50;100.00;-19777.94;5083341;28;20313;-62
2021/12/22 02:52:55;;;;;;;30.47;18.70;;;0.80;99.90;;;1.66;100.00;-19783.25;5071239;28;20239;-61
2021/12/22 02:55:29;;;;;;;28.63;18.10;;;0.90;99.90;;;2.00;100.00;-19794.88;5080837;28;20293;-62
2021/12/22 02:58:01;;;;;;;29.50;18.17;;;0.90;99.90;;;1.82;100.00;-19788.88;5075104;28;20349;-63
2021/12/22 03:00:45;;;;;;;30.73;17.80;;;0.90;99.90;;;1.86;100.00;-19790.25;5081308;28;20284;-62
2021/12/22 03:03:27;;;;;;;29.07;17.27;;;0.90;99.90;;;1.72;100.00;-19785.47;5076985;28;20199;-62
2021/12/22 03:05:57;;;;;;;30.77;17.80;;;0.90;99.90;;;1.82;100.00;-19788.88;5062438;28;20296;-61
2021/12/22 03:08:25;;;;;;;29.00;17.70;;;0.90;99.90;;;1.77;100.00;-19787.19;5073439;28;20209;-62
2021/12/22 03:10:55;;;;;;;28.80;16.47;;;0.90;99.90;;;1.69;100.00;-19784.44;5075337;28;20215;-62
2021/12/22 03:13:24;;;;;;;28.17;15.87;;;0.90;99.90;;;1.73;100.00;-19785.63;5079896;28;20319;-62
2021/12/22 03:15:52;;;;;;;29.80;16.33;;;0.90;99.90;;;1.55;100.00;-19779.66;5077428;28;20300;-62
2021/12/22 03:18:20;;;;;;;26.40;17.33;;;0.90;99.90;;;1.44;100.00;-19775.88;5076711;28;20682;-62
2021/12/22 03:20:55;;;;;;;26.77;16.20;;;0.80;99.90;;;1.53;100.00;-19778.97;5078121;28;20201;-63
2021/12/22 03:23:25;;;;;;;28.93;16.23;;;0.80;99.90;;;1.55;100.00;-19779.47;5079222;28;20188;-62
2021/12/22 03:25:53;;;;;;;19.67;13.30;;;0.80;99.90;;;1.65;100.00;-19782.91;5079836;28;20671;-62
2021/12/22 03:28:21;;;;;;;21.30;13.00;;;0.80;99.90;;;1.84;100.00;-19789.41;5080594;28;20290;-62
2021/12/22 03:30:49;;;;;;;17.07;11.60;;;0.90;99.90;;;1.78;100.00;-19787.53;5082370;28;20295;-62
2021/12/22 03:33:17;;;;;;;15.20;11.40;;;0.90;99.90;;;1.59;100.00;-19781.03;5081800;28;20963;-63
2021/12/22 03:35:45;;;;;;;15.50;11.47;;;0.90;99.90;;;1.49;100.00;-19777.59;5082182;28;20295;-62
2021/12/22 03:38:13;;;;;;;14.27;9.73;;;0.80;99.90;;;1.71;100.00;-19785.13;5078537;28;20210;-62
2021/12/22 03:40:43;;;;;;;15.10;10.47;;;0.90;99.90;;;1.89;100.00;-19791.09;5083204;28;20200;-62
2021/12/22 03:43:11;;;;;;;15.70;10.73;;;0.90;99.90;;;1.79;100.00;-19787.88;5081167;28;20193;-62
2021/12/22 03:45:39;;;;;;;15.10;10.67;;;0.90;99.90;;;1.72;100.00;-19785.47;5081084;28;20201;-62
2021/12/22 03:48:07;;;;;;;13.47;10.10;;;0.90;99.90;;;1.61;100.00;-19781.69;5077104;28;20208;-62
2021/12/22 03:50:35;;;;;;;12.60;9.47;;;0.90;99.90;;;1.50;100.00;-19777.94;5084103;28;20204;-62
2021/12/22 03:53:03;;;;;;;15.03;9.77;;;0.90;99.90;;;1.66;100.00;-19783.25;5073114;28;20229;-63
2021/12/22 03:55:31;;;;;;;12.03;8.43;;;0.90;99.90;;;1.85;100.00;-19789.91;5080335;28;20955;-63
2021/12/22 03:58:01;;;;;;;12.83;8.97;;;0.90;99.90;;;1.83;100.00;-19789.22;5075265;28;20263;-61
2021/12/22 04:00:30;;;;;;;13.80;9.40;;;1.10;99.90;;;1.72;100.00;-19785.28;5083375;28;20298;-61
2021/12/22 04:02:58;;;;;;;11.20;8.50;;;1.00;99.90;;;1.58;100.00;-19780.69;5070869;28;20205;-62
2021/12/22 04:05:26;;;;;;;16.03;9.33;;;1.00;99.90;;;1.52;100.00;-19778.63;5079514;28;20635;-63
2021/12/22 04:07:55;;;;;;;11.97;8.67;;;0.90;99.90;;;1.74;100.00;-19786.16;5073636;28;20222;-62
2021/12/22 04:10:25;;;;;;;13.77;10.00;;;0.90;99.90;;;1.66;100.00;-19783.41;5071361;28;20312;-62
2021/12/22 04:12:57;;;;;;;13.67;9.57;;;0.90;99.90;;;1.39;100.00;-19774.19;5072306;28;20228;-61
2021/12/22 04:15:28;;;;;;;12.37;9.20;;;0.90;99.90;;;1.35;100.00;-19772.66;5078653;28;20299;-62
2021/12/22 04:17:56;;;;;;;14.50;10.10;;;0.80;99.90;;;1.35;100.00;-19772.66;5073039;28;20203;-63
2021/12/22 04:20:25;;;;;;;14.97;9.37;;;0.70;99.90;;;1.35;100.00;-19772.81;5082010;28;20646;-62
2021/12/22 04:22:53;;;;;;;12.20;9.13;;;0.70;99.90;;;1.15;100.00;-19765.97;5079554;28;20287;-62
2021/12/22 04:25:21;;;;;;;13.37;9.13;;;0.60;99.90;;;1.15;100.00;-19765.97;5078234;28;20555;-62
2021/12/22 04:27:50;;;;;;;12.70;9.10;;;0.60;99.90;;;0.91;100.00;-19757.78;5071426;28;20221;-62
2021/12/22 04:30:19;;;;;;;12.97;9.37;;;0.50;99.90;;;0.94;100.00;-19758.78;5081786;28;20220;-62
2021/12/22 04:32:48;;;;;;;12.40;9.40;;;0.40;99.90;;;0.96;100.00;-19759.47;5079601;28;20205;-62
2021/12/22 04:35:17;;;;;;;11.50;8.40;;;0.40;99.90;;;0.91;100.00;-19757.94;5077572;28;20668;-61
2021/12/22 04:37:45;;;;;;;14.67;9.07;;;0.30;99.90;;;1.14;100.00;-19765.63;5070099;28;20200;-63
2021/12/22 04:40:13;;;;;;;15.57;9.63;;;0.40;99.90;;;0.97;100.00;-19759.81;5080347;28;20218;-63
2021/12/22 04:42:42;;;;;;;14.90;9.43;;;0.40;99.90;;;1.07;100.00;-19763.25;5079786;28;20257;-63
2021/12/22 04:45:11;;;;;;;12.10;9.07;;;0.40;99.90;;;0.79;100.00;-19753.66;5076853;28;20227;-62
2021/12/22 04:47:39;;;;;;;13.27;9.53;;;0.30;99.90;;;0.75;100.00;-19752.28;5071009;28;20233;-63
2021/12/22 04:50:14;;;;;;;12.70;9.57;;;0.30;99.90;;;0.75;100.00;-19752.47;5078213;28;20584;-62
2021/12/22 04:52:50;;;;;;;14.80;9.37;;;0.20;99.90;;;0.80;100.00;-19754.00;5078447;28;20231;-62
2021/12/22 04:55:18;;;;;;;13.47;9.47;;;0.20;99.90;;;0.70;100.00;-19750.59;5076304;28;20211;-63
2021/12/22 04:57:47;;;;;;;11.40;9.20;;;0.10;99.90;;;0.58;100.00;-19746.66;5070962;28;20201;-63
2021/12/22 05:00:17;;;;;;;15.43;9.87;;;0.10;99.90;;;0.70;100.00;-19750.59;5078012;28;20237;-63
2021/12/22 05:02:45;;;;;;;13.00;9.57;;;0.10;99.90;;;0.76;100.00;-19752.66;5077606;28;20239;-62
2021/12/22 05:05:15;;;;;;;13.33;9.90;;;0.10;99.90;;;0.71;100.00;-19751.09;5075023;28;20656;-63
2021/12/22 05:07:44;;;;;;;15.60;9.33;;;0.10;99.90;;;0.71;100.00;-19750.94;5070320;28;20300;-63
2021/12/22 05:10:12;;;;;;;12.77;9.67;;;0.10;99.90;;;0.47;100.00;-19742.72;5070929;28;20291;-62
2021/12/22 05:12:40;;;;;;;14.80;10.17;;;0.00;99.90;;;0.42;100.00;-19741.19;5077799;28;20207;-62
2021/12/22 05:15:09;;;;;;;15.03;9.73;;;0.00;99.90;;;0.65;100.00;-19748.88;5074592;28;20344;-62
2021/12/22 05:18:11;;;;;;;13.60;9.43;;;-0.10;99.90;;;0.53;100.00;-19744.78;5070101;28;20208;-62
2021/12/22 05:20:40;;;;;;;14.43;9.90;;;-0.10;99.90;;;0.77;100.00;-19753.16;5071023;28;20355;-63
2021/12/22 05:23:08;;;;;;;14.70;9.27;;;-0.10;99.90;;;0.76;100.00;-19752.66;5069269;28;20206;-63
2021/12/22 05:25:36;;;;;;;11.33;8.60;;;0.00;99.90;;;0.43;100.00;-19741.53;5067246;28;20204;-62
2021/12/22 05:28:04;;;;;;;11.93;9.20;;;-0.10;99.90;;;0.24;100.00;-19734.88;5070164;28;20294;-63
2021/12/22 05:30:32;;;;;;;13.10;8.47;;;-0.10;99.90;;;0.55;100.00;-19745.63;5076897;28;20293;-62
2021/12/22 05:33:00;;;;;;;11.30;9.03;;;-0.20;99.90;;;0.56;100.00;-19745.81;5073006;28;20224;-63
2021/12/22 05:35:29;;;;;;;11.87;8.43;;;-0.10;99.90;;;0.64;100.00;-19748.53;5073013;28;20965;-62
2021/12/22 05:37:58;;;;;;;10.83;8.47;;;-0.10;99.90;;;0.47;100.00;-19742.91;5070344;28;20207;-62
2021/12/22 05:40:28;;;;;;;10.90;7.93;;;-0.10;99.90;;;0.49;100.00;-19743.56;5088099;28;20247;-63
2021/12/22 05:42:58;;;;;;;9.23;7.93;;;-0.20;99.90;;;0.42;100.00;-19741.00;5079379;28;20211;-62
2021/12/22 05:45:27;;;;;;;10.70;8.47;;;-0.10;99.90;;;0.39;100.00;-19740.16;5072087;28;20208;-63
2021/12/22 05:47:55;;;;;;;10.53;8.10;;;-0.20;99.90;;;0.14;100.00;-19731.44;5069630;28;20214;-62
2021/12/22 05:50:24;;;;;;;10.97;8.07;;;-0.20;99.90;;;0.47;100.00;-19742.91;5072904;28;20293;-71
2021/12/22 05:52:52;;;;;;;11.70;8.20;;;-0.20;99.90;;;0.68;100.00;-19750.06;5072941;28;20324;-71
2021/12/22 05:55:22;;;;;;;9.87;7.60;;;-0.10;99.90;;;0.70;100.00;-19750.75;5070757;28;20225;-70
2021/12/22 05:57:50;;;;;;;10.03;7.97;;;-0.10;99.90;;;0.48;100.00;-19743.25;5069271;28;20292;-69
2021/12/22 06:00:18;;;;;;;12.43;7.50;;;-0.10;99.90;;;0.37;100.00;-19739.47;5071596;28;20207;-71
2021/12/22 06:02:47;;;;;;;10.17;7.90;;;-0.20;99.90;;;0.27;100.00;-19735.88;5074524;28;20632;-70
2021/12/22 06:05:18;;;;;;;10.80;7.80;;;-0.20;99.90;;;0.41;100.00;-19740.84;5072950;28;20195;-70
2021/12/22 06:07:46;;;;;;;10.67;7.70;;;-0.30;99.90;;;0.21;100.00;-19733.84;5072412;28;20626;-70
2021/12/22 06:10:15;;;;;;;11.93;8.23;;;-0.30;99.90;;;-0.01;100.00;-19726.66;5073122;28;20199;-71
2021/12/22 06:12:44;;;;;;;13.50;8.30;;;-0.30;99.90;;;0.13;100.00;-19731.28;5072788;28;20201;-71
2021/12/22 06:15:12;;;;;;;11.17;8.53;;;-0.40;99.90;;;0.05;100.00;-19728.53;5072576;28;20251;-70
2021/12/22 06:17:40;;;;;;;11.90;9.13;;;-0.40;99.90;;;0.09;100.00;-19729.72;5072644;28;20226;-72
2021/12/22 06:20:10;;;;;;;12.10;8.83;;;-0.40;99.90;;;0.47;100.00;-19742.72;5072775;28;20202;-71
2021/12/22 06:22:38;;;;;;;12.63;9.87;;;-0.40;99.90;;;0.48;100.00;-19743.06;5072711;28;20284;-70
2021/12/22 06:25:08;;;;;;;11.70;8.67;;;-0.30;99.90;;;0.61;100.00;-19747.69;5072732;28;20232;-71
2021/12/22 06:27:36;;;;;;;13.40;9.57;;;-0.20;99.90;;;0.55;100.00;-19745.63;5070998;28;20281;-70
2021/12/22 06:30:07;;;;;;;12.00;9.23;;;-0.10;99.90;;;0.78;100.00;-19753.50;5072132;28;20223;-71
2021/12/22 06:32:35;;;;;;;13.33;10.00;;;-0.10;99.90;;;0.83;100.00;-19755.19;5072086;28;20209;-71
2021/12/22 06:35:03;;;;;;;13.97;9.67;;;0.00;99.90;;;0.88;100.00;-19756.75;5072046;28;20316;-70
2021/12/22 06:37:32;;;;;;;13.80;9.43;;;0.00;99.90;;;0.68;100.00;-19750.06;5072129;28;20303;-70
2021/12/22 06:40:00;;;;;;;14.00;11.53;;;0.00;99.90;;;0.79;100.00;-19753.66;5072528;28;20286;-70
2021/12/22 06:42:28;;;;;;;14.90;11.03;;;0.10;99.90;;;0.69;100.00;-19750.25;5072499;28;20614;-70
2021/12/22 06:44:56;;;;;;;15.63;10.57;;;0.10;99.90;;;0.70;100.00;-19750.75;5072413;28;20201;-70
2021/12/22 06:47:25;;;;;;;15.60;11.27;;;0.10;99.90;;;0.70;100.00;-19750.59;5072436;28;20211;-71
2021/12/22 06:49:53;;;;;;;14.73;10.30;;;0.10;99.90;;;0.78;100.00;-19753.50;5072782;28;20228;-72
2021/12/22 06:52:24;;;;;;;17.33;10.77;;;0.10;99.90;;;0.95;100.00;-19759.31;5071870;28;20234;-71
2021/12/22 06:54:52;;;;;;;14.70;11.03;;;0.20;99.90;;;0.72;100.00;-19751.28;5072231;28;20218;-69
2021/12/22 06:57:21;;;;;;;15.60;11.93;;;0.20;99.90;;;0.63;100.00;-19748.19;5072393;28;20315;-70
2021/12/22 06:59:49;;;;;;;13.00;9.43;;;0.10;99.90;;;0.60;100.00;-19747.16;5071636;28;20681;-70
2021/12/22 07:02:17;;;;;;;14.83;10.47;;;0.10;99.90;;;0.40;100.00;-19740.50;5072093;28;20209;-69
2021/12/22 07:04:47;;;;;;;12.80;9.70;;;0.00;99.90;;;0.60;100.00;-19747.34;5072313;28;20203;-70
2021/12/22 07:07:15;;;;;;;14.27;10.17;;;-0.10;99.90;;;0.40;100.00;-19740.34;5072287;28;20285;-72
2021/12/22 07:09:43;;;;;;;13.70;10.43;;;-0.10;99.90;;;0.49;100.00;-19743.41;5072117;28;20202;-69
2021/12/22 07:12:12;;;;;;;16.93;11.47;;;-0.10;99.90;;;0.25;100.00;-19735.19;5072348;28;20297;-71
2021/12/22 07:14:40;;;;;;;14.00;10.20;;;-0.20;99.90;;;0.09;100.00;-19729.91;5072128;28;20304;-71
2021/12/22 07:17:10;;;;;;;14.90;9.80;;;-0.30;99.90;;;0.14;100.00;-19731.59;5071676;28;20209;-70
2021/12/22 07:19:38;;;;;;;14.27;9.77;;;-0.30;99.90;;;0.41;100.00;-19740.66;5072176;28;20662;-69
2021/12/22 07:22:08;;;;;;;15.20;10.83;;;-0.30;99.90;;;0.41;100.00;-19740.84;5071781;28;20207;-71
2021/12/22 07:24:36;;;;;;;12.40;9.57;;;-0.20;99.90;;;0.28;100.00;-19736.22;5072051;28;20285;-70
2021/12/22 07:27:04;;;;;;;15.03;10.93;;;-0.30;99.90;;;0.55;100.00;-19745.47;5071935;28;20227;-71
2021/12/22 07:29:32;;;;;;;14.37;9.93;;;-0.20;99.90;;;0.40;100.00;-19740.34;5071999;28;20229;-70
2021/12/22 07:32:00;;;;;;;13.13;10.17;;;-0.20;99.90;;;0.41;100.00;-19740.84;5071831;28;20227;-71
2021/12/22 07:34:38;;;;;;;15.23;10.63;;;-0.30;99.90;;;0.12;100.00;-19730.94;5072041;28;20238;-70
2021/12/22 07:37:20;;;;;;;15.80;10.73;;;-0.30;99.90;;;0.32;100.00;-19737.59;5072060;28;20532;-69
2021/12/22 07:39:48;;;;;;;16.53;10.50;;;-0.40;99.90;;;0.17;100.00;-19732.47;5068267;28;20273;-71
2021/12/22 07:42:16;;;;;;;13.53;10.17;;;-0.40;99.90;;;0.26;100.00;-19735.72;5059344;28;20226;-69
2021/12/22 07:44:44;;;;;;;14.43;10.23;;;-0.40;99.90;;;0.23;100.00;-19734.69;5051949;28;20297;-70
2021/12/22 07:47:12;;;;;;;16.03;10.87;;;-0.40;99.90;;;-0.02;100.00;-19726.31;5058066;28;20320;-72
2021/12/22 07:49:40;;;;;;;15.97;10.83;;;-0.40;99.90;;;0.06;100.00;-19728.88;5071624;28;20321;-70
2021/12/22 07:52:09;;;;;;;15.33;10.47;;;-0.40;99.90;;;0.10;100.00;-19730.25;5071607;28;20241;-70
2021/12/22 07:54:39;;;;;;;15.63;12.10;;;-0.40;99.90;;;0.24;100.00;-19735.03;5072043;28;20224;-69
2021/12/22 07:57:07;;;;;;;15.20;11.30;;;-0.40;99.90;;;0.18;100.00;-19732.97;5071535;28;20674;-70
2021/12/22 07:59:35;;;;;;;15.03;10.80;;;-0.40;99.90;;;0.32;100.00;-19737.78;5071332;28;20240;-70
2021/12/22 08:02:04;;;;;;;18.53;11.80;;;-0.40;99.90;;;0.52;100.00;-19744.44;5071368;28;20795;-70
2021/12/22 08:04:38;;;;;;;19.37;12.67;;;-0.30;99.90;;;0.36;100.00;-19739.13;5071889;28;20207;-70
2021/12/22 08:07:06;;;;;;;17.13;12.60;;;-0.30;99.90;;;0.26;100.00;-19735.53;5071982;28;20292;-69
2021/12/22 08:09:35;;;;;;;17.27;11.73;;;-0.30;99.90;;;0.22;100.00;-19734.19;5071850;28;20236;-71
2021/12/22 08:12:06;;;;;;;18.27;12.90;;;-0.30;99.90;;;0.48;100.00;-19743.06;5072927;28;20204;-69
2021/12/22 08:14:36;;;;;;;16.60;11.87;;;-0.20;99.90;;;0.41;100.00;-19740.66;5076006;28;20180;-70
2021/12/22 08:17:05;;;;;;;17.63;12.97;;;-0.20;99.90;;;0.34;100.00;-19738.28;5075183;28;20312;-70
2021/12/22 08:19:33;;;;;;;17.70;12.17;;;-0.20;99.90;;;0.62;100.00;-19747.84;5075317;28;20299;-71
2021/12/22 08:22:01;;;;;;;18.27;12.10;;;-0.10;99.90;;;0.56;100.00;-19745.81;5075414;28;20661;-71
2021/12/22 08:24:29;;;;;;;18.77;13.30;;;-0.10;99.90;;;0.50;100.00;-19743.75;5075605;28;20201;-70
2021/12/22 08:26:57;;;;;;;20.63;13.03;;;-0.10;99.90;;;0.66;100.00;-19749.38;5075591;28;20293;-69
2021/12/22 08:29:27;;;;;;;19.50;12.20;;;0.00;99.90;;;0.65;100.00;-19749.06;5075155;28;20293;-70
2021/12/22 08:31:55;;;;;;;17.37;12.03;;;0.00;99.90;;;0.94;100.00;-19758.97;5074770;28;20296;-74
2021/12/22 08:34:27;;;;;;;20.83;13.43;;;0.10;99.90;;;0.93;100.00;-19758.63;5075553;28;20201;-69
2021/12/22 08:39:42;;;;;;;19.97;13.13;;;0.30;99.90;;;1.15;100.00;-19766.16;5075439;28;20279;-71
2021/12/22 08:42:10;;;;;;;17.07;13.73;;;0.40;99.90;;;1.27;100.00;-19769.91;5075550;28;20208;-71
2021/12/22 08:44:40;;;;;;;18.97;13.13;;;0.50;99.90;;;1.23;100.00;-19768.72;5074593;28;20251;-70
2021/12/22 08:47:09;;;;;;;19.73;13.40;;;0.60;99.90;;;1.50;100.00;-19777.94;5074822;28;20192;-70
2021/12/22 08:49:39;;;;;;;21.43;13.33;;;0.70;99.90;;;1.55;100.00;-19779.66;5059189;28;20631;-71
2021/12/22 08:52:08;;;;;;;20.27;13.73;;;0.70;99.90;;;1.41;100.00;-19774.69;5054631;28;20229;-71
2021/12/22 08:54:36;;;;;;;18.33;13.23;;;0.70;99.90;;;1.49;100.00;-19777.59;5058519;28;20221;-70
2021/12/22 08:57:06;;;;;;;17.27;12.63;;;0.70;99.90;;;1.62;100.00;-19782.06;5075350;28;20233;-71
2021/12/22 08:59:35;;;;;;;17.13;12.17;;;0.80;99.90;;;1.62;100.00;-19782.06;5074620;28;20284;-70
2021/12/22 09:02:05;;;;;;;18.77;13.10;;;0.90;99.90;;;1.65;100.00;-19783.06;5074768;28;20292;-70
2021/12/22 09:04:33;;;;;;;19.60;12.73;;;0.80;99.90;;;1.40;100.00;-19774.53;5074952;28;20197;-71
2021/12/22 09:07:01;;;;;;;18.50;13.10;;;0.70;99.90;;;1.20;100.00;-19767.84;5074298;28;20308;-69
2021/12/22 09:09:30;;;;;;;19.47;12.33;;;0.50;99.90;;;1.25;100.00;-19769.41;5074559;28;20228;-70
2021/12/22 09:11:58;;;;;;;19.40;13.50;;;0.50;99.90;;;1.19;100.00;-19767.50;5073665;28;20280;-70
2021/12/22 09:14:26;;;;;;;18.73;13.10;;;0.50;99.90;;;1.14;100.00;-19765.63;5073708;28;20645;-71
2021/12/22 09:16:55;;;;;;;20.80;12.57;;;0.50;99.90;;;1.22;100.00;-19768.53;5073094;28;20213;-70
2021/12/22 09:19:24;;;;;;;20.07;12.63;;;0.60;99.90;;;1.24;100.00;-19769.22;5073409;28;20193;-70
2021/12/22 09:21:53;;;;;;;18.80;12.83;;;0.60;99.90;;;1.34;100.00;-19772.47;5070176;28;20197;-71
2021/12/22 09:24:21;;;;;;;23.30;13.97;;;0.60;99.90;;;1.41;100.00;-19774.88;5073740;28;20232;-71
2021/12/22 09:26:49;;;;;;;19.77;13.23;;;0.60;99.90;;;1.59;100.00;-19780.84;5073601;28;20610;-71
2021/12/22 09:29:17;;;;;;;20.23;14.50;;;0.70;99.90;;;1.46;100.00;-19776.56;5069297;28;20272;-71
2021/12/22 09:31:45;;;;;;;19.60;13.80;;;0.70;99.90;;;1.48;100.00;-19777.25;5069329;28;20205;-71
2021/12/22 09:34:13;;;;;;;18.80;13.43;;;0.70;99.90;;;1.53;100.00;-19778.97;5073642;28;20318;-72
2021/12/22 09:36:43;;;;;;;22.13;13.23;;;0.70;99.90;;;1.35;100.00;-19772.81;5073055;28;20307;-71
2021/12/22 09:39:11;;;;;;;19.43;13.20;;;0.70;99.90;;;1.38;100.00;-19773.84;5073306;28;20296;-72
2021/12/22 09:41:39;;;;;;;19.40;12.23;;;0.80;99.90;;;1.40;100.00;-19774.53;5073374;28;20220;-71
2021/12/22 09:44:07;;;;;;;20.90;12.67;;;0.80;99.90;;;1.53;100.00;-19778.78;5073313;28;20297;-71
2021/12/22 09:46:39;;;;;;;20.57;13.83;;;0.90;99.90;;;1.70;100.00;-19784.59;5073053;28;20281;-71
2021/12/22 09:49:20;;;;;;;19.10;13.80;;;0.90;99.90;;;1.86;100.00;-19790.25;5073376;28;20609;-70
2021/12/22 09:54:36;;;;;;;20.60;13.90;;;1.00;99.90;;;1.79;100.00;-19787.88;5072840;28;20238;-70
2021/12/22 09:57:04;;;;;;;21.83;13.50;;;1.00;99.90;;;1.83;100.00;-19789.22;5053226;28;20225;-71
2021/12/22 09:59:33;;;;;;;22.67;13.70;;;1.10;99.90;;;1.84;100.00;-19789.56;5068970;28;20211;-70
2021/12/22 10:02:01;;;;;;;20.67;13.17;;;1.20;99.90;;;1.82;100.00;-19788.88;5072874;28;20663;-70
2021/12/22 10:04:30;;;;;;;20.27;13.80;;;1.10;99.90;;;1.82;100.00;-19788.88;5072691;28;20293;-71
2021/12/22 10:07:02;;;;;;;21.50;14.47;;;1.20;99.90;;;2.05;100.00;-19796.56;5073246;28;20199;-72
2021/12/22 10:09:31;;;;;;;20.87;13.40;;;1.30;99.90;;;2.06;100.00;-19796.91;5072524;28;20643;-70
2021/12/22 10:12:05;;;;;;;20.93;13.97;;;1.30;99.90;;;2.00;100.00;-19794.88;5073023;28;20742;-70
2021/12/22 10:14:54;;;;;;;20.00;13.10;;;1.30;99.90;;;1.92;100.00;-19792.13;5072517;28;20232;-71
2021/12/22 10:17:33;;;;;;;20.00;13.23;;;1.30;99.90;;;1.99;100.00;-19794.53;5071522;28;20197;-70
2021/12/22 10:20:08;;;;;;;21.07;13.00;;;1.20;99.90;;;1.89;100.00;-19791.09;5072483;28;20228;-70
2021/12/22 10:22:41;;;;;;;20.43;12.37;;;1.20;99.90;;;1.81;100.00;-19788.53;5072475;28;20662;-71
2021/12/22 10:25:14;;;;;;;21.63;14.03;;;1.20;99.90;;;1.94;100.00;-19792.81;5053349;28;20268;-70